Time;durP1;ratioP1;P1;durP2;ratioP2;P2;SDS_P1;SDS_P2;PMS_P1;PMS_P2;Temp;Humidity;BMP_temperature;BMP_pressure;BME280_temperature;BME280_humidity;BME280_pressure;Samples;Min_cycle;Max_cycle;Signal;HPM_P1;HPM_P2
2020/12/21 00:00:28;;;;;;;53.57;20.60;;;2.60;99.90;;;;;;5028958;28;20049;-68
2020/12/21 00:02:54;;;;;;;53.60;20.90;;;2.60;99.90;;;;;;5028554;28;20475;-67
2020/12/21 00:05:21;;;;;;;51.57;19.27;;;2.60;99.90;;;;;;5025376;28;20052;-68
2020/12/21 00:07:49;;;;;;;44.40;18.13;;;2.60;99.90;;;;;;5018621;28;20045;-68
2020/12/21 00:10:16;;;;;;;47.43;19.43;;;2.70;99.90;;;;;;5015717;28;20048;-68
2020/12/21 00:12:44;;;;;;;47.47;19.73;;;2.80;99.90;;;;;;5010643;28;20569;-68
2020/12/21 00:15:11;;;;;;;47.70;20.27;;;2.60;99.90;;;;;;5018405;28;20077;-67
2020/12/21 00:17:49;;;;;;;48.70;19.07;;;2.70;99.90;;;;;;5022775;28;20054;-68
2020/12/21 00:20:29;;;;;;;47.73;19.83;;;2.70;99.90;;;;;;5017452;28;20536;-67
2020/12/21 00:22:57;;;;;;;46.37;19.57;;;2.70;99.90;;;;;;5020168;28;20063;-68
2020/12/21 00:25:24;;;;;;;53.73;20.27;;;2.70;99.90;;;;;;5017561;28;20046;-67
2020/12/21 00:27:51;;;;;;;50.40;19.83;;;2.70;99.90;;;;;;5020620;28;20052;-67
2020/12/21 00:30:18;;;;;;;52.27;20.40;;;2.80;99.90;;;;;;5013658;28;20050;-67
2020/12/21 00:32:45;;;;;;;50.17;20.57;;;2.80;99.90;;;;;;5019243;28;20065;-68
2020/12/21 00:35:11;;;;;;;49.43;20.27;;;2.70;99.90;;;;;;5014670;28;20053;-67
2020/12/21 00:37:38;;;;;;;47.80;18.40;;;2.80;99.90;;;;;;5018832;28;20049;-67
2020/12/21 00:40:07;;;;;;;45.17;18.43;;;2.80;99.90;;;;;;5019508;28;20053;-67
2020/12/21 00:42:34;;;;;;;49.20;19.53;;;2.80;99.90;;;;;;5025148;28;20049;-67
2020/12/21 00:45:01;;;;;;;43.77;18.90;;;2.70;99.90;;;;;;5008532;28;20054;-67
2020/12/21 00:47:27;;;;;;;48.77;19.73;;;2.80;99.90;;;;;;5008253;28;20057;-67
2020/12/21 00:49:54;;;;;;;48.97;19.17;;;2.70;99.90;;;;;;5008706;28;20181;-67
2020/12/21 00:52:21;;;;;;;48.50;19.30;;;2.80;99.90;;;;;;5028076;28;20053;-67
2020/12/21 00:54:48;;;;;;;50.53;19.67;;;2.90;99.90;;;;;;5017648;28;20052;-67
2020/12/21 00:57:18;;;;;;;55.67;20.20;;;2.80;99.90;;;;;;5019091;28;20050;-67
2020/12/21 00:59:45;;;;;;;46.03;19.17;;;2.70;99.90;;;;;;5019298;28;20061;-67
2020/12/21 01:02:15;;;;;;;45.93;19.07;;;2.80;99.90;;;;;;5015818;28;20129;-67
2020/12/21 01:04:43;;;;;;;51.50;18.70;;;2.80;99.90;;;;;;5030566;28;20053;-67
2020/12/21 01:07:09;;;;;;;52.40;19.33;;;2.70;99.90;;;;;;5024319;28;20046;-67
2020/12/21 01:09:36;;;;;;;56.60;21.57;;;2.70;99.90;;;;;;5020351;28;20061;-67
2020/12/21 01:12:03;;;;;;;54.23;21.07;;;2.70;99.90;;;;;;5024063;28;20089;-67
2020/12/21 01:14:30;;;;;;;54.33;20.70;;;2.70;99.90;;;;;;5014948;28;20081;-67
2020/12/21 01:16:57;;;;;;;51.53;20.73;;;2.70;99.90;;;;;;5018624;28;20402;-67
2020/12/21 01:19:24;;;;;;;56.43;19.67;;;2.70;99.90;;;;;;5025851;28;20053;-67
2020/12/21 01:21:50;;;;;;;54.83;18.63;;;2.60;99.90;;;;;;5012513;28;20494;-67
2020/12/21 01:24:17;;;;;;;49.43;18.03;;;2.70;99.90;;;;;;5009891;28;20049;-67
2020/12/21 01:26:44;;;;;;;50.83;18.30;;;2.70;99.90;;;;;;5020784;28;20049;-67
2020/12/21 01:29:11;;;;;;;53.33;20.13;;;2.60;99.90;;;;;;5021217;28;20085;-67
2020/12/21 01:31:39;;;;;;;54.77;20.33;;;2.70;99.90;;;;;;5021892;28;20079;-67
2020/12/21 01:34:05;;;;;;;51.90;19.07;;;2.70;99.90;;;;;;5023485;28;20053;-67
2020/12/21 01:36:32;;;;;;;51.17;19.10;;;2.70;99.90;;;;;;5020612;28;20058;-67
2020/12/21 01:38:59;;;;;;;55.50;21.00;;;2.70;99.90;;;;;;5018897;28;20137;-67
2020/12/21 01:41:26;;;;;;;56.83;22.07;;;2.70;99.90;;;;;;5030228;28;20057;-67
2020/12/21 01:43:55;;;;;;;57.83;20.33;;;2.70;99.90;;;;;;5025136;28;20049;-67
2020/12/21 01:46:23;;;;;;;59.60;20.23;;;2.60;99.90;;;;;;5021889;28;20046;-67
2020/12/21 01:48:51;;;;;;;57.23;19.87;;;2.60;99.90;;;;;;5019011;28;20458;-67
2020/12/21 01:51:24;;;;;;;65.10;20.90;;;2.70;99.90;;;;;;5020694;28;20045;-67
2020/12/21 01:53:52;;;;;;;56.53;20.53;;;2.70;99.90;;;;;;5021179;28;20060;-66
2020/12/21 01:56:19;;;;;;;63.60;22.40;;;2.70;99.90;;;;;;5016636;28;20042;-67
2020/12/21 01:58:48;;;;;;;62.77;19.57;;;2.80;99.90;;;;;;5023658;28;20052;-67
2020/12/21 02:01:16;;;;;;;56.63;20.37;;;2.80;99.90;;;;;;5030894;28;20064;-67
2020/12/21 02:03:43;;;;;;;62.30;20.90;;;2.80;99.90;;;;;;5030891;28;20053;-67
2020/12/21 02:06:12;;;;;;;65.90;21.67;;;2.80;99.90;;;;;;5024068;28;20063;-67
2020/12/21 02:08:38;;;;;;;57.53;21.73;;;2.80;99.90;;;;;;5019380;28;20054;-67
2020/12/21 02:11:06;;;;;;;59.93;21.90;;;3.00;99.90;;;;;;5020201;28;20052;-67
2020/12/21 02:13:33;;;;;;;66.40;22.93;;;3.00;99.90;;;;;;5021284;28;20053;-67
2020/12/21 02:16:04;;;;;;;64.93;22.47;;;3.00;99.90;;;;;;5018214;28;20072;-67
2020/12/21 02:18:30;;;;;;;62.00;21.33;;;3.00;99.90;;;;;;5026892;28;20049;-67
2020/12/21 02:20:58;;;;;;;59.87;22.60;;;3.00;99.90;;;;;;5029210;28;20046;-67
2020/12/21 02:23:25;;;;;;;65.20;22.80;;;2.90;99.90;;;;;;5030473;28;20049;-67
2020/12/21 02:25:52;;;;;;;58.60;21.43;;;2.90;99.90;;;;;;5025104;28;20049;-67
2020/12/21 02:28:19;;;;;;;63.70;22.33;;;2.90;99.90;;;;;;5020429;28;20079;-67
2020/12/21 02:30:48;;;;;;;62.57;22.33;;;2.90;99.90;;;;;;5019365;28;20049;-67
2020/12/21 02:33:18;;;;;;;62.47;23.57;;;2.90;99.90;;;;;;5018464;28;20057;-67
2020/12/21 02:35:44;;;;;;;61.50;21.90;;;2.90;99.90;;;;;;5021363;28;20076;-67
2020/12/21 02:38:12;;;;;;;64.70;22.70;;;2.90;99.90;;;;;;5021276;28;20076;-67
2020/12/21 02:40:41;;;;;;;56.03;21.40;;;2.90;99.90;;;;;;5029615;28;20041;-66
2020/12/21 02:43:07;;;;;;;61.20;21.47;;;3.00;99.90;;;;;;5029683;28;20514;-67
2020/12/21 02:45:34;;;;;;;61.50;21.73;;;3.00;99.90;;;;;;5024094;28;20461;-67
2020/12/21 02:48:01;;;;;;;63.43;22.03;;;3.00;99.90;;;;;;5029431;28;20486;-67
2020/12/21 02:50:27;;;;;;;62.97;22.27;;;3.00;99.90;;;;;;5025138;28;20429;-66
2020/12/21 02:52:54;;;;;;;67.63;22.77;;;3.10;99.90;;;;;;5026538;28;20490;-66
2020/12/21 02:55:22;;;;;;;60.17;22.60;;;3.20;99.90;;;;;;5029214;28;20128;-67
2020/12/21 02:57:49;;;;;;;62.30;22.90;;;3.00;99.90;;;;;;5029259;28;20049;-67
2020/12/21 03:00:15;;;;;;;58.63;20.87;;;3.10;99.90;;;;;;5029824;28;20060;-67
2020/12/21 03:02:46;;;;;;;62.37;24.40;;;3.00;99.90;;;;;;5029373;28;20514;-67
2020/12/21 03:05:12;;;;;;;57.50;22.17;;;3.10;99.90;;;;;;5030519;28;20140;-66
2020/12/21 03:07:39;;;;;;;57.17;21.23;;;3.10;99.90;;;;;;5026739;28;20116;-67
2020/12/21 03:10:06;;;;;;;54.80;21.53;;;3.10;99.90;;;;;;5025714;28;20517;-66
2020/12/21 03:12:33;;;;;;;64.10;21.53;;;3.10;99.90;;;;;;5026171;28;20045;-67
2020/12/21 03:15:00;;;;;;;59.83;20.73;;;3.10;99.90;;;;;;5029163;28;20061;-66
2020/12/21 03:17:27;;;;;;;55.83;21.13;;;3.10;99.90;;;;;;5029663;28;20113;-66
2020/12/21 03:19:54;;;;;;;65.50;23.17;;;3.10;99.90;;;;;;5028972;28;20068;-66
2020/12/21 03:22:22;;;;;;;54.93;21.43;;;3.00;99.90;;;;;;5028972;28;20050;-66
2020/12/21 03:24:49;;;;;;;52.03;21.63;;;3.10;99.90;;;;;;5028626;28;20060;-67
2020/12/21 03:27:16;;;;;;;50.03;20.13;;;3.10;99.90;;;;;;5029381;28;20115;-66
2020/12/21 03:29:44;;;;;;;55.60;21.17;;;3.10;99.90;;;;;;5028964;28;20114;-67
2020/12/21 03:32:11;;;;;;;55.17;20.57;;;3.10;99.90;;;;;;5028784;28;20054;-66
2020/12/21 03:34:43;;;;;;;56.87;20.70;;;3.10;99.90;;;;;;5029455;28;20045;-67
2020/12/21 03:37:11;;;;;;;51.17;19.73;;;3.10;99.90;;;;;;5026356;28;20064;-66
2020/12/21 03:39:40;;;;;;;52.83;21.17;;;3.10;99.90;;;;;;5025044;28;20673;-66
2020/12/21 03:42:08;;;;;;;47.60;19.77;;;3.10;99.90;;;;;;5027696;28;20053;-67
2020/12/21 03:44:34;;;;;;;55.53;21.13;;;3.10;99.90;;;;;;5029237;28;20049;-66
2020/12/21 03:47:02;;;;;;;54.00;20.43;;;3.10;99.90;;;;;;5028728;28;20779;-66
2020/12/21 03:49:29;;;;;;;49.53;20.73;;;3.20;99.90;;;;;;5028982;28;20046;-66
2020/12/21 03:51:55;;;;;;;55.30;21.03;;;3.20;99.90;;;;;;5028293;28;20114;-66
2020/12/21 03:54:22;;;;;;;49.80;19.97;;;3.20;99.90;;;;;;5027874;28;20064;-66
2020/12/21 03:56:49;;;;;;;52.90;20.17;;;3.20;99.90;;;;;;5029078;28;20060;-66
2020/12/21 03:59:16;;;;;;;54.63;19.97;;;3.20;99.90;;;;;;5028191;28;20413;-66
2020/12/21 04:01:43;;;;;;;49.57;19.87;;;3.20;99.90;;;;;;5024437;28;20053;-66
2020/12/21 04:04:10;;;;;;;46.20;18.13;;;3.40;99.90;;;;;;5019562;28;20502;-66
2020/12/21 04:06:40;;;;;;;53.37;20.23;;;3.40;99.90;;;;;;5025208;28;20447;-66
2020/12/21 04:09:07;;;;;;;48.33;19.83;;;3.40;99.90;;;;;;5028467;28;20053;-66
2020/12/21 04:11:33;;;;;;;53.47;21.67;;;3.30;99.90;;;;;;5027047;28;20041;-66
2020/12/21 04:14:00;;;;;;;49.90;19.13;;;3.30;99.90;;;;;;5029013;28;20058;-66
2020/12/21 04:16:27;;;;;;;51.57;19.27;;;3.30;99.90;;;;;;5028236;28;20429;-66
2020/12/21 04:18:54;;;;;;;50.17;19.40;;;3.30;99.90;;;;;;5028982;28;20502;-66
2020/12/21 04:21:21;;;;;;;45.83;18.23;;;3.30;99.90;;;;;;5028098;28;20116;-66
2020/12/21 04:23:48;;;;;;;45.67;18.47;;;3.30;99.90;;;;;;5027778;28;20056;-66
2020/12/21 04:26:15;;;;;;;46.07;18.67;;;3.40;99.90;;;;;;5031639;28;20460;-66
2020/12/21 04:28:41;;;;;;;53.77;19.77;;;3.40;99.90;;;;;;5031927;28;20513;-66
2020/12/21 04:31:08;;;;;;;45.73;18.50;;;3.40;99.90;;;;;;5032150;28;20064;-66
2020/12/21 04:33:35;;;;;;;50.70;18.97;;;3.50;99.90;;;;;;5032059;28;20041;-66
2020/12/21 04:36:02;;;;;;;45.23;18.87;;;3.50;99.90;;;;;;5032209;28;20050;-66
2020/12/21 04:38:29;;;;;;;45.57;18.27;;;3.50;99.90;;;;;;5032638;28;20119;-66
2020/12/21 04:40:57;;;;;;;50.67;18.17;;;3.50;99.90;;;;;;5030080;28;20045;-66
2020/12/21 04:43:24;;;;;;;45.20;18.43;;;3.50;99.90;;;;;;5032494;28;20045;-67
2020/12/21 04:45:53;;;;;;;44.57;18.17;;;3.50;99.90;;;;;;5031451;28;20042;-66
2020/12/21 04:48:22;;;;;;;47.60;18.30;;;3.60;99.90;;;;;;5032428;28;20413;-66
2020/12/21 04:50:53;;;;;;;46.47;17.93;;;3.50;99.90;;;;;;5031186;28;20064;-66
2020/12/21 04:53:20;;;;;;;48.43;19.47;;;3.40;99.90;;;;;;5032287;28;20053;-66
2020/12/21 04:55:48;;;;;;;43.23;18.13;;;3.40;99.90;;;;;;5031927;28;20065;-66
2020/12/21 04:58:15;;;;;;;50.93;20.57;;;3.30;99.90;;;;;;5029708;28;20049;-66
2020/12/21 05:00:42;;;;;;;47.87;18.53;;;3.40;99.90;;;;;;5031807;28;20057;-66
2020/12/21 05:03:09;;;;;;;42.97;18.70;;;3.40;99.90;;;;;;5031108;28;20128;-66
2020/12/21 05:05:37;;;;;;;42.47;17.17;;;3.50;99.90;;;;;;5031998;28;20053;-66
2020/12/21 05:08:12;;;;;;;44.50;17.27;;;3.50;99.90;;;;;;5030932;28;20128;-67
2020/12/21 05:10:40;;;;;;;43.83;19.57;;;3.50;99.90;;;;;;5029651;28;20502;-66
2020/12/21 05:13:09;;;;;;;47.03;17.83;;;3.50;99.90;;;;;;5031638;28;20056;-66
2020/12/21 05:15:36;;;;;;;41.77;17.43;;;3.50;99.90;;;;;;5029017;28;20091;-66
2020/12/21 05:18:04;;;;;;;45.70;18.47;;;3.50;99.90;;;;;;5031907;28;20060;-66
2020/12/21 05:20:31;;;;;;;44.83;18.27;;;3.60;99.90;;;;;;5030630;28;20045;-66
2020/12/21 05:22:58;;;;;;;43.83;17.97;;;3.60;99.90;;;;;;5032456;28;20053;-66
2020/12/21 05:25:24;;;;;;;41.93;17.53;;;3.60;99.90;;;;;;5030927;28;20053;-66
2020/12/21 05:27:51;;;;;;;43.53;18.47;;;3.50;99.90;;;;;;5031951;28;20058;-66
2020/12/21 05:30:18;;;;;;;43.10;18.57;;;3.50;99.90;;;;;;5031416;28;20053;-66
2020/12/21 05:32:45;;;;;;;43.10;17.60;;;3.60;99.90;;;;;;5031067;28;20057;-66
2020/12/21 05:35:14;;;;;;;47.97;19.07;;;3.60;99.90;;;;;;5032018;28;20187;-66
2020/12/21 05:37:41;;;;;;;41.30;17.10;;;3.60;99.90;;;;;;5030705;28;20402;-67
2020/12/21 05:40:09;;;;;;;51.43;18.63;;;3.70;99.90;;;;;;5031390;28;20464;-66
2020/12/21 05:42:36;;;;;;;47.53;18.93;;;3.70;99.90;;;;;;5030741;28;20420;-66
2020/12/21 05:45:06;;;;;;;48.43;19.60;;;3.60;99.90;;;;;;5031820;28;20449;-66
2020/12/21 05:47:35;;;;;;;44.97;17.20;;;3.60;99.90;;;;;;5031092;28;20045;-68
2020/12/21 05:50:04;;;;;;;46.40;18.23;;;3.60;99.90;;;;;;5027297;28;20057;-71
2020/12/21 05:52:35;;;;;;;43.50;18.60;;;3.60;99.90;;;;;;5027729;28;20049;-70
2020/12/21 05:55:04;;;;;;;49.33;18.80;;;3.60;99.90;;;;;;5028381;28;20050;-71
2020/12/21 05:57:31;;;;;;;42.83;18.57;;;3.50;99.90;;;;;;5030949;28;20060;-69
2020/12/21 05:59:59;;;;;;;44.00;17.83;;;3.60;99.90;;;;;;5029704;28;20053;-68
2020/12/21 06:02:27;;;;;;;42.57;18.17;;;3.60;99.90;;;;;;5030692;28;20049;-68
2020/12/21 06:05:01;;;;;;;50.10;18.13;;;3.60;99.90;;;;;;5031261;28;20505;-72
2020/12/21 06:07:30;;;;;;;45.17;17.20;;;3.60;99.90;;;;;;5030317;28;20049;-70
2020/12/21 06:09:59;;;;;;;48.23;17.57;;;3.50;99.90;;;;;;5031559;28;20057;-68
2020/12/21 06:12:27;;;;;;;43.17;18.20;;;3.50;99.90;;;;;;5029695;28;20049;-71
2020/12/21 06:15:00;;;;;;;41.80;17.27;;;3.50;99.90;;;;;;5031112;28;20046;-69
2020/12/21 06:17:29;;;;;;;48.87;18.83;;;3.50;99.90;;;;;;5030673;28;20057;-68
2020/12/21 06:20:04;;;;;;;46.07;16.97;;;3.50;99.90;;;;;;5030482;28;20049;-68
2020/12/21 06:22:31;;;;;;;44.83;18.60;;;3.50;99.90;;;;;;5030912;28;20068;-69
2020/12/21 06:24:58;;;;;;;45.60;18.87;;;3.60;99.90;;;;;;5030439;28;20506;-68
2020/12/21 06:27:24;;;;;;;48.43;18.13;;;3.60;99.90;;;;;;5030977;28;20053;-69
2020/12/21 06:29:59;;;;;;;42.90;17.77;;;3.50;99.90;;;;;;5029930;28;20054;-69
2020/12/21 06:32:32;;;;;;;45.20;18.27;;;3.60;99.90;;;;;;5030591;28;20060;-68
2020/12/21 06:34:59;;;;;;;45.07;16.83;;;3.60;99.90;;;;;;5030057;28;20490;-68
2020/12/21 06:37:27;;;;;;;43.00;17.97;;;3.60;99.90;;;;;;5030687;28;20067;-68
2020/12/21 06:40:05;;;;;;;42.07;18.47;;;3.60;99.90;;;;;;5031137;28;20049;-68
2020/12/21 06:42:32;;;;;;;46.70;18.33;;;3.60;99.90;;;;;;5029984;28;20107;-68
2020/12/21 06:44:59;;;;;;;38.90;17.30;;;3.50;99.90;;;;;;5030854;28;20053;-72
2020/12/21 06:47:27;;;;;;;44.67;19.27;;;3.60;99.90;;;;;;5029355;28;20500;-69
2020/12/21 06:49:54;;;;;;;47.37;18.20;;;3.60;99.90;;;;;;5031531;28;20140;-68
2020/12/21 06:52:21;;;;;;;46.93;18.53;;;3.60;99.90;;;;;;5030879;28;20410;-71
2020/12/21 06:54:53;;;;;;;43.37;17.53;;;3.60;99.90;;;;;;5030553;28;20060;-69
2020/12/21 06:57:19;;;;;;;41.17;17.63;;;3.60;99.90;;;;;;5031907;28;20046;-69
2020/12/21 06:59:46;;;;;;;38.77;17.90;;;3.60;99.90;;;;;;5030469;28;20516;-69
2020/12/21 07:02:15;;;;;;;36.87;17.80;;;3.60;99.90;;;;;;5030483;28;20057;-72
2020/12/21 07:04:42;;;;;;;44.80;18.23;;;3.70;99.90;;;;;;5029458;28;20061;-68
2020/12/21 07:07:09;;;;;;;40.23;16.33;;;3.60;99.90;;;;;;5029639;28;20538;-70
2020/12/21 07:09:38;;;;;;;39.83;16.93;;;3.70;99.90;;;;;;5029984;28;20059;-68
2020/12/21 07:12:08;;;;;;;41.70;16.77;;;3.70;99.90;;;;;;5028089;28;20049;-68
2020/12/21 07:14:36;;;;;;;42.27;18.53;;;3.70;99.90;;;;;;5029907;28;20059;-68
2020/12/21 07:17:09;;;;;;;38.97;17.20;;;3.70;99.90;;;;;;5028571;28;20191;-74
2020/12/21 07:19:36;;;;;;;41.53;17.43;;;3.70;99.90;;;;;;5029870;28;20057;-70
2020/12/21 07:22:04;;;;;;;49.40;19.10;;;3.60;99.90;;;;;;5028430;28;20689;-69
2020/12/21 07:24:31;;;;;;;43.30;18.30;;;3.60;99.90;;;;;;5029765;28;20046;-68
2020/12/21 07:26:58;;;;;;;43.07;17.37;;;3.60;99.90;;;;;;5029045;28;20060;-72
2020/12/21 07:29:32;;;;;;;40.77;17.93;;;3.70;99.90;;;;;;5029221;28;20056;-68
2020/12/21 07:31:59;;;;;;;50.63;17.80;;;3.60;99.90;;;;;;5029195;28;20054;-68
2020/12/21 07:34:25;;;;;;;44.33;17.57;;;3.70;99.90;;;;;;5028289;28;20100;-72
2020/12/21 07:36:52;;;;;;;43.33;18.53;;;3.70;99.90;;;;;;5029582;28;20056;-68
2020/12/21 07:39:20;;;;;;;41.30;16.63;;;3.70;99.90;;;;;;5028465;28;20099;-68
2020/12/21 07:41:47;;;;;;;44.73;18.10;;;3.80;99.90;;;;;;5029670;28;20128;-68
2020/12/21 07:44:16;;;;;;;46.30;17.80;;;3.80;99.90;;;;;;5029429;28;20049;-68
2020/12/21 07:46:51;;;;;;;40.53;16.97;;;3.70;99.90;;;;;;5030058;28;20509;-68
2020/12/21 07:49:22;;;;;;;43.80;18.67;;;3.70;99.90;;;;;;5030938;28;20054;-68
2020/12/21 07:51:49;;;;;;;44.30;17.00;;;3.70;99.90;;;;;;5028024;28;20110;-68
2020/12/21 07:54:16;;;;;;;43.13;18.10;;;3.70;99.90;;;;;;5020988;28;20057;-68
2020/12/21 07:56:43;;;;;;;44.10;18.40;;;3.80;99.90;;;;;;5009641;28;20065;-69
2020/12/21 07:59:16;;;;;;;46.53;19.30;;;3.70;99.90;;;;;;5010597;28;20054;-68
2020/12/21 08:01:46;;;;;;;39.53;16.87;;;3.70;99.90;;;;;;5008343;28;20145;-69
2020/12/21 08:04:17;;;;;;;44.27;18.43;;;3.90;99.90;;;;;;5009906;28;20113;-69
2020/12/21 08:06:46;;;;;;;42.47;17.10;;;3.80;99.90;;;;;;5010207;28;20057;-68
2020/12/21 08:09:13;;;;;;;45.03;17.47;;;3.90;99.90;;;;;;5009096;28;20054;-70
2020/12/21 08:11:39;;;;;;;45.37;18.93;;;3.90;99.90;;;;;;5009674;28;20076;-68
2020/12/21 08:14:08;;;;;;;41.50;16.93;;;3.90;99.90;;;;;;5009355;28;20128;-71
2020/12/21 08:16:35;;;;;;;48.00;19.03;;;4.00;99.90;;;;;;5009746;28;20050;-68
2020/12/21 08:19:03;;;;;;;45.27;17.27;;;3.90;99.90;;;;;;5008612;28;20053;-68
2020/12/21 08:21:30;;;;;;;42.20;15.87;;;4.00;99.90;;;;;;5008986;28;20049;-68
2020/12/21 08:23:58;;;;;;;41.33;17.90;;;3.90;99.90;;;;;;5015709;28;20054;-72
2020/12/21 08:26:26;;;;;;;44.47;18.70;;;3.90;99.90;;;;;;5029487;28;20061;-69
2020/12/21 08:28:54;;;;;;;39.07;16.50;;;3.80;99.90;;;;;;5041519;28;20053;-68
2020/12/21 08:31:21;;;;;;;40.87;17.67;;;3.80;99.90;;;;;;5028489;28;20073;-68
2020/12/21 08:34:00;;;;;;;40.23;17.00;;;3.90;99.90;;;;;;5029508;28;20057;-68
2020/12/21 08:36:30;;;;;;;37.97;16.03;;;4.00;99.90;;;;;;5031488;28;20050;-68
2020/12/21 08:39:10;;;;;;;44.17;16.90;;;3.90;99.90;;;;;;5030328;28;20053;-69
2020/12/21 08:41:39;;;;;;;43.43;18.37;;;3.90;99.90;;;;;;5030246;28;20494;-71
2020/12/21 08:44:07;;;;;;;46.90;18.10;;;3.90;99.90;;;;;;5029512;28;20067;-68
2020/12/21 08:46:34;;;;;;;42.87;17.57;;;4.00;99.90;;;;;;5028371;28;20049;-68
2020/12/21 08:49:01;;;;;;;44.30;19.50;;;4.10;99.90;;;;;;5029222;28;20053;-71
2020/12/21 08:51:29;;;;;;;42.27;17.13;;;4.10;99.90;;;;;;5029234;28;20057;-69
2020/12/21 08:53:57;;;;;;;42.37;17.37;;;4.30;99.90;;;;;;5028926;28;20053;-68
2020/12/21 08:56:25;;;;;;;40.87;17.97;;;4.30;99.90;;;;;;5028597;28;20103;-69
2020/12/21 08:58:52;;;;;;;44.20;17.50;;;4.20;99.90;;;;;;5031062;28;20438;-69
2020/12/21 09:01:18;;;;;;;44.50;19.03;;;4.30;99.90;;;;;;5028602;28;20050;-69
2020/12/21 09:03:46;;;;;;;37.37;17.20;;;4.30;99.90;;;;;;5029048;28;20176;-68
2020/12/21 09:06:18;;;;;;;41.87;17.90;;;4.30;99.90;;;;;;5030138;28;20054;-68
2020/12/21 09:08:46;;;;;;;39.77;17.57;;;4.40;99.90;;;;;;5029179;28;20050;-68
2020/12/21 09:11:12;;;;;;;39.73;16.60;;;4.50;99.90;;;;;;5028331;28;20155;-69
2020/12/21 09:13:41;;;;;;;42.63;17.10;;;4.50;99.90;;;;;;5033310;28;20049;-67
2020/12/21 09:16:08;;;;;;;42.87;16.33;;;4.50;99.90;;;;;;5033429;28;20064;-69
2020/12/21 09:18:36;;;;;;;41.07;16.57;;;4.50;99.90;;;;;;5032727;28;20057;-68
2020/12/21 09:21:02;;;;;;;42.07;17.67;;;4.50;99.90;;;;;;5030668;28;20046;-69
2020/12/21 09:23:29;;;;;;;40.23;16.43;;;4.40;99.90;;;;;;5031929;28;20045;-68
2020/12/21 09:25:57;;;;;;;38.03;16.47;;;4.50;99.90;;;;;;5032514;28;20122;-70
2020/12/21 09:28:24;;;;;;;39.10;16.23;;;4.50;99.90;;;;;;5031150;28;20053;-68
2020/12/21 09:30:51;;;;;;;41.33;15.63;;;4.50;99.90;;;;;;5031714;28;20441;-68
2020/12/21 09:33:17;;;;;;;41.33;17.57;;;4.40;99.90;;;;;;5031248;28;20486;-68
2020/12/21 09:35:44;;;;;;;36.87;16.97;;;4.50;99.90;;;;;;5023614;28;20053;-66
2020/12/21 09:38:11;;;;;;;42.17;18.23;;;4.60;99.90;;;;;;5023281;28;20050;-66
2020/12/21 09:40:38;;;;;;;42.70;17.27;;;4.60;99.90;;;;;;5014416;28;20104;-66
2020/12/21 09:43:05;;;;;;;42.67;18.07;;;4.60;99.90;;;;;;5027648;28;20518;-66
2020/12/21 09:45:32;;;;;;;45.80;17.30;;;4.60;99.90;;;;;;5017754;28;20533;-65
2020/12/21 09:47:59;;;;;;;39.23;17.30;;;4.50;99.90;;;;;;5020169;28;20057;-66
2020/12/21 09:50:25;;;;;;;44.27;18.70;;;4.60;99.90;;;;;;5024291;28;20046;-66
2020/12/21 09:52:52;;;;;;;38.67;16.67;;;4.70;99.90;;;;;;5014435;28;20050;-66
2020/12/21 09:55:19;;;;;;;38.57;16.77;;;4.70;99.90;;;;;;5030043;28;20498;-66
2020/12/21 09:57:46;;;;;;;40.83;17.87;;;4.70;99.90;;;;;;5021231;28;20054;-66
2020/12/21 10:00:13;;;;;;;41.40;17.97;;;4.70;99.90;;;;;;5012550;28;20062;-66
2020/12/21 10:02:40;;;;;;;42.47;17.87;;;4.80;99.90;;;;;;5006237;28;20518;-66
2020/12/21 10:05:06;;;;;;;40.27;17.47;;;4.80;99.90;;;;;;5007932;28;20050;-66
2020/12/21 10:07:33;;;;;;;39.77;16.57;;;4.70;99.90;;;;;;5011061;28;20045;-66
2020/12/21 10:10:00;;;;;;;40.53;18.07;;;4.80;99.90;;;;;;5009408;28;20057;-66
2020/12/21 10:12:27;;;;;;;42.87;17.17;;;4.90;99.90;;;;;;5010394;28;20077;-66
2020/12/21 10:14:54;;;;;;;42.70;17.97;;;4.90;99.90;;;;;;5009864;28;20426;-67
2020/12/21 10:17:22;;;;;;;40.57;16.63;;;4.90;99.90;;;;;;5027846;28;20060;-64
2020/12/21 10:19:48;;;;;;;41.97;17.13;;;4.90;99.90;;;;;;5025627;28;20552;-65
2020/12/21 10:22:15;;;;;;;42.63;17.97;;;4.80;99.90;;;;;;5024868;28;20055;-64
2020/12/21 10:24:42;;;;;;;39.70;16.47;;;4.90;99.90;;;;;;5025370;28;20102;-65
2020/12/21 10:27:08;;;;;;;40.73;16.30;;;4.90;99.90;;;;;;5028274;28;20057;-65
2020/12/21 10:29:35;;;;;;;38.83;16.37;;;4.90;99.90;;;;;;5027899;28;20056;-65
2020/12/21 10:32:02;;;;;;;43.97;17.47;;;4.90;99.90;;;;;;5022783;28;20057;-65
2020/12/21 10:34:30;;;;;;;35.13;15.47;;;4.80;99.90;;;;;;5012067;28;20056;-65
2020/12/21 10:36:56;;;;;;;42.77;17.50;;;4.80;99.90;;;;;;5012972;28;20054;-65
2020/12/21 10:39:23;;;;;;;43.63;17.00;;;4.80;99.90;;;;;;5011581;28;20054;-65
2020/12/21 10:41:50;;;;;;;42.43;17.30;;;4.70;99.90;;;;;;5010099;28;20053;-65
2020/12/21 10:44:17;;;;;;;41.20;18.20;;;4.70;99.90;;;;;;5011527;28;20499;-65
2020/12/21 10:46:44;;;;;;;44.50;19.33;;;4.70;99.90;;;;;;5010276;28;20053;-64
2020/12/21 10:49:10;;;;;;;44.10;19.27;;;4.90;99.90;;;;;;5011224;28;20058;-65
2020/12/21 10:51:38;;;;;;;46.80;18.73;;;4.80;99.90;;;;;;5021180;28;20445;-65
2020/12/21 10:54:08;;;;;;;40.77;17.30;;;4.80;99.90;;;;;;5015312;28;20049;-65
2020/12/21 10:56:35;;;;;;;43.77;18.83;;;4.80;99.90;;;;;;5044312;28;20088;-65
2020/12/21 10:59:02;;;;;;;43.90;17.77;;;4.80;99.90;;;;;;5014510;28;20533;-64
2020/12/21 11:01:29;;;;;;;51.37;20.73;;;4.90;99.90;;;;;;5026075;28;20049;-65
2020/12/21 11:03:56;;;;;;;45.60;18.77;;;4.80;99.90;;;;;;5015607;28;20049;-65
2020/12/21 11:06:24;;;;;;;53.77;18.97;;;4.80;99.90;;;;;;5021562;28;20057;-68
2020/12/21 11:08:53;;;;;;;41.20;18.27;;;4.90;99.90;;;;;;5023156;28;20049;-68
2020/12/21 11:11:29;;;;;;;49.93;18.40;;;4.80;99.90;;;;;;5021272;28;20719;-68
2020/12/21 11:13:56;;;;;;;43.28;17.25;;;4.90;99.90;;;;;;5018798;28;20045;-66
2020/12/21 11:16:23;;;;;;;42.77;18.43;;;4.90;99.90;;;;;;5016249;28;20486;-64
2020/12/21 11:18:50;;;;;;;49.63;19.67;;;4.80;99.90;;;;;;5015120;28;20180;-66
2020/12/21 11:21:20;;;;;;;48.10;20.23;;;4.80;99.90;;;;;;5022734;28;20045;-66
2020/12/21 11:23:46;;;;;;;52.80;19.37;;;4.80;99.90;;;;;;5019838;28;20081;-70
2020/12/21 11:26:15;;;;;;;50.17;20.33;;;4.80;99.90;;;;;;5017451;28;20061;-68
2020/12/21 11:28:42;;;;;;;50.47;20.03;;;4.80;99.90;;;;;;5014657;28;20840;-68
2020/12/21 11:31:09;;;;;;;52.57;20.27;;;5.00;99.90;;;;;;5018624;28;20046;-68
2020/12/21 11:33:36;;;;;;;49.57;19.67;;;5.00;99.90;;;;;;5025736;28;20060;-67
2020/12/21 11:36:03;;;;;;;55.07;21.87;;;5.00;99.90;;;;;;5014710;28;20575;-69
2020/12/21 11:38:30;;;;;;;47.67;19.37;;;5.00;99.90;;;;;;5014254;28;20079;-69
2020/12/21 11:40:56;;;;;;;53.67;21.03;;;5.00;99.90;;;;;;5016353;28;20521;-68
2020/12/21 11:43:24;;;;;;;54.87;21.70;;;5.00;99.90;;;;;;5015046;28;20048;-68
2020/12/21 11:45:51;;;;;;;50.23;21.70;;;5.00;99.90;;;;;;5017240;28;20050;-70
2020/12/21 11:48:19;;;;;;;57.90;21.10;;;5.10;99.90;;;;;;5020075;28;20413;-68
2020/12/21 11:50:46;;;;;;;50.37;20.50;;;5.10;99.90;;;;;;5018361;28;20465;-68
2020/12/21 11:53:13;;;;;;;55.53;21.30;;;5.20;99.90;;;;;;5016027;28;20061;-68
2020/12/21 11:55:39;;;;;;;50.13;20.10;;;5.40;99.90;;;;;;5021144;28;20056;-66
2020/12/21 11:58:06;;;;;;;46.30;19.70;;;5.40;99.90;;;;;;5020341;28;20049;-65
2020/12/21 12:00:34;;;;;;;51.13;21.70;;;5.40;99.90;;;;;;5016977;28;20491;-65
2020/12/21 12:03:01;;;;;;;53.47;21.90;;;5.30;99.90;;;;;;5026319;28;20050;-64
2020/12/21 12:05:29;;;;;;;53.70;20.63;;;5.40;99.90;;;;;;5018736;28;20498;-65
2020/12/21 12:07:56;;;;;;;59.40;22.50;;;5.30;99.90;;;;;;5015971;28;20092;-65
2020/12/21 12:10:22;;;;;;;52.57;22.23;;;5.30;99.90;;;;;;5013810;28;20387;-65
2020/12/21 12:12:49;;;;;;;54.03;22.77;;;5.40;99.90;;;;;;5023642;28;20057;-65
2020/12/21 12:15:16;;;;;;;52.13;21.57;;;5.50;99.90;;;;;;5022528;28;20057;-65
2020/12/21 12:17:44;;;;;;;54.23;21.83;;;5.50;99.90;;;;;;5017454;28;20050;-65
2020/12/21 12:20:12;;;;;;;54.97;22.33;;;5.40;99.90;;;;;;5014317;28;20046;-65
2020/12/21 12:22:39;;;;;;;52.93;22.33;;;5.30;99.90;;;;;;5021590;28;20054;-65
2020/12/21 12:25:09;;;;;;;53.93;23.00;;;5.20;99.90;;;;;;5017372;28;20273;-65
2020/12/21 12:27:35;;;;;;;52.10;22.10;;;5.20;99.90;;;;;;5017284;28;20173;-65
2020/12/21 12:30:02;;;;;;;50.73;21.90;;;5.30;99.90;;;;;;5021013;28;20050;-65
2020/12/21 12:32:29;;;;;;;56.53;22.13;;;5.20;99.90;;;;;;5017852;28;20046;-65
2020/12/21 12:34:57;;;;;;;54.87;21.93;;;5.20;99.90;;;;;;5023944;28;20495;-64
2020/12/21 12:37:23;;;;;;;53.10;21.93;;;5.20;99.90;;;;;;5017874;28;20046;-65